Terminal Aerodrome Forecast
Issued by NWS Melbourne, FL

Home | Current Version | Previous Version | Text Only | Print | Product List | Glossary On
Versions: 1 2 3 4 5 6 7 8 9 10 11 12 13 14 15 16 17 18 19 20 21 22 23 24 25 26 27 28 29 30 31 32 33 34
000
FTUS42 KMLB 191120
TAFMLB
TAF
KMLB 191120Z 1912/2012 21007KT P6SM SCT250
     FM191500 23010KT P6SM BKN035
     FM191800 23010KT P6SM VCTS SCT035CB BKN060
      TEMPO 1918/1921 3SM TSRA BKN030CB
     FM200100 22005KT P6SM FEW035 SCT080 BKN250=

USA.gov is the U.S. government's official web portal to all federal, state and local government web resources and services.